createdAt,value
2023-03-04T00:01:33.020Z,99.90
2023-03-04T00:03:58.062Z,99.90
2023-03-04T00:06:22.494Z,99.90
2023-03-04T00:08:46.870Z,99.90
2023-03-04T00:11:11.361Z,99.90
2023-03-04T00:13:35.718Z,99.90
2023-03-04T00:16:04.009Z,99.90
2023-03-04T00:18:28.288Z,99.90
2023-03-04T00:20:52.869Z,99.90
2023-03-04T00:23:17.489Z,99.90
2023-03-04T00:25:43.571Z,99.90
2023-03-04T00:28:08.117Z,99.90
2023-03-04T00:30:32.786Z,99.90
2023-03-04T00:32:58.728Z,99.90
2023-03-04T00:35:23.337Z,99.90
2023-03-04T00:37:47.831Z,99.90
2023-03-04T00:40:15.109Z,99.90
2023-03-04T00:42:39.529Z,99.90
2023-03-04T00:45:04.069Z,99.90
2023-03-04T00:47:29.830Z,99.90
2023-03-04T00:49:55.633Z,99.90
2023-03-04T00:52:20.125Z,99.90
2023-03-04T00:54:44.647Z,99.90
2023-03-04T00:57:09.560Z,99.90
2023-03-04T00:59:34.296Z,99.90
2023-03-04T01:01:58.702Z,99.90
2023-03-04T01:04:23.172Z,99.90
2023-03-04T01:06:49.356Z,99.90
2023-03-04T01:09:14.413Z,99.90
2023-03-04T01:11:38.898Z,99.90
2023-03-04T01:14:03.322Z,99.90
2023-03-04T01:16:28.305Z,99.90
2023-03-04T01:18:52.892Z,99.90
2023-03-04T01:21:18.423Z,99.90
2023-03-04T01:23:44.730Z,99.90
2023-03-04T01:26:09.069Z,99.90
2023-03-04T01:28:35.896Z,99.90
2023-03-04T01:31:00.268Z,99.90
2023-03-04T01:33:24.927Z,99.90
2023-03-04T01:35:49.409Z,99.90
2023-03-04T01:38:14.427Z,99.90
2023-03-04T01:40:40.848Z,99.90
2023-03-04T01:43:05.470Z,99.90
2023-03-04T01:45:30.360Z,99.90
2023-03-04T01:47:54.757Z,99.90
2023-03-04T01:50:23.155Z,99.90
2023-03-04T01:52:47.624Z,99.90
2023-03-04T01:55:17.668Z,99.90
2023-03-04T01:57:43.524Z,99.90
2023-03-04T02:00:37.384Z,99.90
2023-03-04T02:03:07.245Z,99.90
2023-03-04T02:05:32.028Z,99.90
2023-03-04T02:07:57.330Z,99.90
2023-03-04T02:10:22.255Z,99.90
2023-03-04T02:12:48.418Z,99.90
2023-03-04T02:15:13.138Z,99.90
2023-03-04T02:17:37.538Z,99.90
2023-03-04T02:20:09.138Z,99.90
2023-03-04T02:22:40.177Z,99.90
2023-03-04T02:25:10.485Z,99.90
2023-03-04T02:27:36.534Z,99.90
2023-03-04T02:30:00.899Z,99.90
2023-03-04T02:32:27.412Z,99.90
2023-03-04T02:34:52.700Z,99.90
2023-03-04T02:37:19.720Z,99.90
2023-03-04T02:39:47.556Z,99.90
2023-03-04T02:42:12.765Z,99.90
2023-03-04T02:44:39.982Z,99.90
2023-03-04T02:47:06.615Z,99.90
2023-03-04T02:49:33.775Z,99.90
2023-03-04T02:52:02.699Z,99.90
2023-03-04T02:54:27.305Z,99.90
2023-03-04T02:56:54.700Z,99.90
2023-03-04T02:59:22.460Z,99.90
2023-03-04T03:01:50.202Z,99.90
2023-03-04T03:04:15.371Z,99.90
2023-03-04T03:06:42.259Z,99.90
2023-03-04T03:09:07.450Z,99.90
2023-03-04T03:11:32.034Z,99.90
2023-03-04T03:13:56.385Z,99.90
2023-03-04T03:16:23.155Z,99.90
2023-03-04T03:18:49.561Z,99.90
2023-03-04T03:21:13.980Z,99.90
2023-03-04T03:23:38.706Z,99.90
2023-03-04T03:26:04.858Z,99.90
2023-03-04T03:28:29.594Z,99.90
2023-03-04T03:30:53.914Z,99.90
2023-03-04T03:33:18.410Z,99.90
2023-03-04T03:35:44.775Z,99.90
2023-03-04T03:38:09.536Z,99.90
2023-03-04T03:40:34.217Z,99.90
2023-03-04T03:42:58.879Z,99.90
2023-03-04T03:45:23.562Z,99.90
2023-03-04T03:47:48.312Z,99.90
2023-03-04T03:50:13.190Z,99.90
2023-03-04T03:52:38.954Z,99.90
2023-03-04T03:55:03.506Z,99.90
2023-03-04T03:57:27.984Z,99.90
2023-03-04T03:59:52.335Z,99.90
2023-03-04T04:02:16.856Z,99.90
2023-03-04T04:04:42.368Z,99.90
2023-03-04T04:07:06.812Z,99.90
2023-03-04T04:09:32.518Z,99.90
2023-03-04T04:11:57.601Z,99.90
2023-03-04T04:14:21.932Z,99.90
2023-03-04T04:16:46.389Z,99.90
2023-03-04T04:19:16.691Z,99.90
2023-03-04T04:21:41.069Z,99.90
2023-03-04T04:24:05.929Z,99.90
2023-03-04T04:26:31.805Z,99.90
2023-03-04T04:28:56.206Z,99.90
2023-03-04T04:31:20.602Z,99.90
2023-03-04T04:33:47.447Z,99.90
2023-03-04T04:36:18.193Z,99.90
2023-03-04T04:38:42.581Z,99.90
2023-03-04T04:41:07.750Z,99.90
2023-03-04T04:43:33.607Z,99.90
2023-03-04T04:46:00.329Z,99.90
2023-03-04T04:48:24.678Z,99.90
2023-03-04T04:50:54.617Z,99.90
2023-03-04T04:53:18.996Z,99.90
2023-03-04T04:55:43.345Z,99.90
2023-03-04T04:58:08.262Z,99.90
2023-03-04T05:00:33.960Z,99.90
2023-03-04T05:02:58.454Z,99.90
2023-03-04T05:05:22.760Z,99.90
2023-03-04T05:07:48.626Z,99.90
2023-03-04T05:10:13.304Z,99.90
2023-03-04T05:12:37.707Z,99.90
2023-03-04T05:15:02.034Z,99.90
2023-03-04T05:17:28.960Z,99.90
2023-03-04T05:19:53.622Z,99.90
2023-03-04T05:22:18.039Z,99.90
2023-03-04T05:24:42.499Z,99.90
2023-03-04T05:27:07.243Z,99.90
2023-03-04T05:29:31.653Z,99.90
2023-03-04T05:31:56.121Z,99.90
2023-03-04T05:34:22.175Z,99.90
2023-03-04T05:36:46.655Z,99.90
2023-03-04T05:39:12.484Z,99.90
2023-03-04T05:41:36.978Z,99.90
2023-03-04T05:44:01.399Z,99.90
2023-03-04T05:46:26.375Z,99.90
2023-03-04T05:48:51.153Z,99.90
2023-03-04T05:51:17.006Z,99.90
2023-03-04T05:53:42.916Z,99.90
2023-03-04T05:56:11.460Z,99.90
2023-03-04T05:58:35.838Z,99.90
2023-03-04T06:01:01.877Z,99.90
2023-03-04T06:03:26.216Z,99.90
2023-03-04T06:05:50.963Z,99.90
2023-03-04T06:08:16.913Z,99.90
2023-03-04T06:10:42.715Z,99.90
2023-03-04T06:13:07.308Z,99.90
2023-03-04T06:15:32.281Z,99.90
2023-03-04T06:17:56.561Z,99.90
2023-03-04T06:20:21.143Z,99.90
2023-03-04T06:22:45.528Z,99.90
2023-03-04T06:25:12.234Z,99.90
2023-03-04T06:27:36.666Z,99.90
2023-03-04T06:30:03.177Z,99.90
2023-03-04T06:32:28.045Z,99.90
2023-03-04T06:34:52.516Z,99.90
2023-03-04T06:37:16.933Z,99.90
2023-03-04T06:39:41.385Z,99.90
2023-03-04T06:42:07.232Z,99.90
2023-03-04T06:44:32.004Z,99.90
2023-03-04T06:46:56.512Z,99.90
2023-03-04T06:49:20.867Z,99.90
2023-03-04T06:51:46.361Z,99.90
2023-03-04T06:54:11.174Z,99.90
2023-03-04T06:56:35.973Z,99.90
2023-03-04T06:59:01.855Z,99.90
2023-03-04T07:01:29.682Z,99.90
2023-03-04T07:03:54.897Z,99.90
2023-03-04T07:06:22.193Z,99.90
2023-03-04T07:08:46.982Z,99.90
2023-03-04T07:11:12.093Z,99.90
2023-03-04T07:13:38.450Z,99.90
2023-03-04T07:16:04.453Z,99.90
2023-03-04T07:18:29.068Z,99.90
2023-03-04T07:20:54.040Z,99.90
2023-03-04T07:23:18.297Z,99.90
2023-03-04T07:25:43.006Z,99.00
2023-03-04T07:28:07.300Z,98.80
2023-03-04T07:30:31.716Z,99.10
2023-03-04T07:32:58.995Z,99.10
2023-03-04T07:35:23.420Z,99.20
2023-03-04T07:37:47.971Z,98.90
2023-03-04T07:40:13.575Z,98.40
2023-03-04T07:42:38.435Z,98.00
2023-03-04T07:45:09.931Z,97.80
2023-03-04T07:47:34.381Z,97.80
2023-03-04T07:50:00.174Z,97.90
2023-03-04T07:52:24.683Z,97.90
2023-03-04T07:54:50.248Z,97.60
2023-03-04T07:57:15.443Z,97.60
2023-03-04T07:59:39.934Z,97.70
2023-03-04T08:02:04.461Z,98.50
2023-03-04T08:04:28.970Z,97.80
2023-03-04T08:06:54.828Z,97.90
2023-03-04T08:09:19.574Z,97.80
2023-03-04T08:11:44.656Z,97.80
2023-03-04T08:14:09.355Z,97.40
2023-03-04T08:16:34.284Z,97.60
2023-03-04T08:19:02.022Z,97.80
2023-03-04T08:21:28.193Z,97.30
2023-03-04T08:23:54.412Z,97.30
2023-03-04T08:26:22.159Z,97.40
2023-03-04T08:28:47.153Z,96.90
2023-03-04T08:31:11.747Z,96.90
2023-03-04T08:33:36.388Z,97.10
2023-03-04T08:36:01.667Z,97.70
2023-03-04T08:38:27.962Z,98.20
2023-03-04T08:40:58.153Z,98.10
2023-03-04T08:43:22.668Z,97.90
2023-03-04T08:45:47.025Z,98.10
2023-03-04T08:48:12.363Z,97.60
2023-03-04T08:50:37.544Z,97.30
2023-03-04T08:53:01.970Z,97.70
2023-03-04T08:55:26.534Z,97.90
2023-03-04T08:57:52.359Z,97.90
2023-03-04T09:00:17.810Z,98.70
2023-03-04T09:02:42.211Z,99.20
2023-03-04T09:05:08.062Z,99.00
2023-03-04T09:07:32.562Z,99.30
2023-03-04T09:09:56.910Z,99.90
2023-03-04T09:12:21.475Z,99.90
2023-03-04T09:15:10.677Z,99.90
2023-03-04T09:17:38.334Z,99.90
2023-03-04T09:20:19.193Z,99.90
2023-03-04T09:22:52.483Z,99.90
2023-03-04T09:25:37.528Z,99.90
2023-03-04T09:28:09.455Z,99.90
2023-03-04T09:30:38.808Z,99.90
2023-03-04T09:33:22.958Z,99.90
2023-03-04T09:36:31.629Z,99.90
2023-03-04T09:39:09.869Z,99.90
2023-03-04T09:50:08.600Z,99.90
2023-03-04T09:57:42.207Z,99.90
2023-03-04T10:01:24.877Z,99.90
2023-03-04T10:05:34.868Z,99.90
2023-03-04T10:09:16.537Z,99.90
2023-03-04T10:12:47.552Z,99.90
2023-03-04T10:23:59.863Z,99.90
2023-03-04T10:26:38.580Z,99.90
2023-03-04T10:29:49.040Z,99.90
2023-03-04T10:32:47.440Z,99.90
2023-03-04T10:35:27.791Z,99.90
2023-03-04T10:42:32.611Z,99.90
2023-03-04T10:45:50.735Z,99.90
2023-03-04T10:49:13.460Z,99.90
2023-03-04T10:52:46.353Z,99.90
2023-03-04T11:05:50.684Z,98.80
2023-03-04T11:22:17.731Z,98.90
2023-03-04T11:25:32.640Z,98.70
2023-03-04T11:29:59.672Z,98.90
2023-03-04T11:37:31.525Z,99.20
2023-03-04T11:41:07.220Z,98.50
2023-03-04T11:44:00.814Z,98.60
2023-03-04T11:47:45.348Z,98.20
2023-03-04T11:51:35.468Z,98.00
2023-03-04T11:55:02.832Z,98.00
2023-03-04T12:01:58.683Z,97.50
2023-03-04T12:09:59.655Z,97.80
2023-03-04T12:14:10.830Z,97.60
2023-03-04T12:27:36.841Z,97.10
2023-03-04T12:39:28.938Z,96.70
2023-03-04T12:43:38.602Z,96.50
2023-03-04T12:47:12.555Z,96.70
2023-03-04T12:50:36.047Z,96.80
2023-03-04T12:53:21.245Z,96.40
2023-03-04T12:55:51.976Z,96.30
2023-03-04T12:58:53.929Z,96.20
2023-03-04T13:02:06.285Z,95.90
2023-03-04T13:06:29.007Z,95.20
2023-03-04T13:10:11.936Z,95.00
2023-03-04T13:13:32.048Z,94.80
2023-03-04T13:17:13.253Z,94.70
2023-03-04T13:19:55.785Z,94.60
2023-03-04T13:27:02.627Z,94.60
2023-03-04T13:34:43.741Z,94.40
2023-03-04T13:43:02.629Z,93.60
2023-03-04T13:54:44.073Z,93.20
2023-03-04T14:02:40.860Z,93.80
2023-03-04T14:09:07.447Z,95.20
2023-03-04T14:16:54.951Z,96.20
2023-03-04T14:21:04.110Z,96.50
2023-03-04T14:24:54.675Z,96.70
2023-03-04T14:39:16.939Z,97.50
2023-03-04T14:42:45.395Z,97.90
2023-03-04T14:53:50.833Z,98.70
2023-03-04T15:01:05.140Z,98.70
2023-03-04T15:04:20.116Z,98.80
2023-03-04T15:08:18.158Z,99.00
2023-03-04T15:12:26.440Z,98.80
2023-03-04T15:15:56.396Z,98.90
2023-03-04T15:19:14.763Z,98.90
2023-03-04T15:22:58.636Z,99.40
2023-03-04T15:26:27.288Z,99.70
2023-03-04T15:30:24.853Z,99.90
2023-03-04T15:38:48.908Z,99.90
2023-03-04T16:04:18.827Z,99.90
2023-03-04T16:12:59.851Z,99.90
2023-03-04T16:28:54.292Z,99.90
2023-03-04T16:31:21.139Z,99.90
2023-03-04T16:33:45.897Z,99.90
2023-03-04T16:36:15.892Z,99.90
2023-03-04T16:38:40.244Z,99.90
2023-03-04T16:41:04.786Z,99.90
2023-03-04T16:43:29.993Z,99.90
2023-03-04T16:45:56.204Z,99.90
2023-03-04T16:48:21.326Z,99.90
2023-03-04T16:50:46.437Z,99.90
2023-03-04T16:58:15.766Z,99.90
2023-03-04T17:00:42.820Z,99.90
2023-03-04T17:03:11.835Z,99.90
2023-03-04T17:05:36.369Z,99.90
2023-03-04T17:08:00.919Z,99.90
2023-03-04T17:10:26.148Z,99.90
2023-03-04T17:12:51.047Z,99.90
2023-03-04T17:15:16.219Z,99.90
2023-03-04T17:17:41.402Z,99.90
2023-03-04T17:20:08.900Z,99.90
2023-03-04T17:22:34.416Z,99.90
2023-03-04T17:24:59.141Z,99.90
2023-03-04T17:27:23.585Z,99.90
2023-03-04T17:29:49.098Z,99.90
2023-03-04T17:32:13.482Z,99.90
2023-03-04T17:34:37.980Z,99.90
2023-03-04T17:37:03.855Z,99.90
2023-03-04T17:39:28.646Z,99.90
2023-03-04T17:41:53.713Z,99.90
2023-03-04T17:44:18.685Z,99.90
2023-03-04T17:46:43.284Z,99.90
2023-03-04T17:49:08.865Z,99.90
2023-03-04T17:51:35.258Z,99.90
2023-03-04T17:54:01.566Z,99.90
2023-03-04T17:56:30.137Z,99.90
2023-03-04T17:58:54.722Z,99.90
2023-03-04T18:01:21.423Z,99.90
2023-03-04T18:03:46.735Z,99.90
2023-03-04T18:06:11.452Z,99.90
2023-03-04T18:08:36.064Z,99.90
2023-03-04T18:11:02.365Z,99.90
2023-03-04T18:13:27.510Z,99.90
2023-03-04T18:15:52.026Z,99.90
2023-03-04T18:18:19.283Z,99.90
2023-03-04T18:20:43.952Z,99.90
2023-03-04T18:23:09.168Z,99.90
2023-03-04T18:25:33.640Z,99.90
2023-03-04T18:27:59.966Z,99.90
2023-03-04T18:30:27.937Z,99.90
2023-03-04T18:32:53.513Z,99.90
2023-03-04T18:35:19.677Z,99.90
2023-03-04T18:37:45.384Z,99.90
2023-03-04T18:40:11.187Z,99.90
2023-03-04T18:42:37.579Z,99.90
2023-03-04T18:45:04.178Z,99.90
2023-03-04T18:47:28.876Z,99.90
2023-03-04T18:49:54.073Z,99.90
2023-03-04T18:52:20.239Z,99.90
2023-03-04T18:54:44.999Z,99.90
2023-03-04T18:57:12.279Z,99.90
2023-03-04T18:59:41.589Z,99.90
2023-03-04T19:02:13.324Z,99.90
2023-03-04T19:04:38.549Z,99.90
2023-03-04T19:07:03.347Z,99.90
2023-03-04T19:09:27.959Z,99.90
2023-03-04T19:11:52.356Z,99.90
2023-03-04T19:14:16.946Z,99.90
2023-03-04T19:16:41.684Z,99.90
2023-03-04T19:19:08.736Z,99.90
2023-03-04T19:21:33.271Z,99.90
2023-03-04T19:23:57.882Z,99.90
2023-03-04T19:26:22.299Z,99.90
2023-03-04T19:28:46.872Z,99.90
2023-03-04T19:31:12.336Z,99.90
2023-03-04T19:33:37.602Z,99.90
2023-03-04T19:36:05.119Z,99.90
2023-03-04T19:38:29.663Z,99.90
2023-03-04T19:40:54.500Z,99.90
2023-03-04T19:43:19.355Z,99.90
2023-03-04T19:45:43.910Z,99.90
2023-03-04T19:48:10.462Z,99.90
2023-03-04T19:50:35.161Z,99.90
2023-03-04T19:53:02.759Z,99.90
2023-03-04T19:55:27.256Z,99.90
2023-03-04T19:57:55.533Z,99.90
2023-03-04T20:00:23.344Z,99.90
2023-03-04T20:02:49.231Z,99.90
2023-03-04T20:05:13.656Z,99.90
2023-03-04T20:07:38.176Z,99.90
2023-03-04T20:10:04.624Z,99.90
2023-03-04T20:12:31.366Z,99.90
2023-03-04T20:14:55.938Z,99.90
2023-03-04T20:17:20.681Z,99.90
2023-03-04T20:19:45.300Z,99.90
2023-03-04T20:22:10.661Z,99.90
2023-03-04T20:24:35.137Z,99.90
2023-03-04T20:27:01.043Z,99.90
2023-03-04T20:29:30.113Z,99.90
2023-03-04T20:31:55.111Z,99.90
2023-03-04T20:34:19.517Z,99.90
2023-03-04T20:36:44.051Z,99.90
2023-03-04T20:39:26.959Z,99.90
2023-03-04T20:41:52.828Z,99.90
2023-03-04T20:44:18.838Z,99.90
2023-03-04T20:46:46.189Z,99.90
2023-03-04T20:49:12.606Z,99.90
2023-03-04T20:51:38.091Z,99.90
2023-03-04T20:54:03.915Z,99.90
2023-03-04T20:56:29.592Z,99.90
2023-03-04T20:58:55.951Z,99.90
2023-03-04T21:01:22.769Z,99.90
2023-03-04T21:03:47.853Z,99.90
2023-03-04T21:06:14.436Z,99.90
2023-03-04T21:08:38.834Z,99.90
2023-03-04T21:11:03.630Z,99.90
2023-03-04T21:13:30.835Z,99.90
2023-03-04T21:15:55.373Z,99.90
2023-03-04T21:18:21.468Z,99.90
2023-03-04T21:20:48.514Z,99.90
2023-03-04T21:23:13.190Z,99.90
2023-03-04T21:25:37.672Z,99.90
2023-03-04T21:28:02.430Z,99.90
2023-03-04T21:30:26.977Z,99.90
2023-03-04T21:32:52.665Z,99.90
2023-03-04T21:35:19.543Z,99.90
2023-03-04T21:37:44.106Z,99.90
2023-03-04T21:40:09.669Z,99.90
2023-03-04T21:42:34.160Z,99.90
2023-03-04T21:44:58.779Z,99.90
2023-03-04T21:47:23.827Z,99.90
2023-03-04T21:49:48.621Z,99.90
2023-03-04T21:52:14.842Z,99.90
2023-03-04T21:54:39.356Z,99.90
2023-03-04T21:57:04.030Z,99.90
2023-03-04T21:59:28.609Z,99.90
2023-03-04T22:01:55.232Z,99.90
2023-03-04T22:04:20.368Z,99.90
2023-03-04T22:06:44.792Z,99.90
2023-03-04T22:09:12.246Z,99.90
2023-03-04T22:11:36.857Z,99.90
2023-03-04T22:14:02.887Z,99.90
2023-03-04T22:16:27.807Z,99.90
2023-03-04T22:18:52.360Z,99.90
2023-03-04T22:21:19.288Z,99.90
2023-03-04T22:23:43.976Z,99.90
2023-03-04T22:26:13.098Z,99.90
2023-03-04T22:28:37.758Z,99.90
2023-03-04T22:31:03.007Z,99.90
2023-03-04T22:33:27.590Z,99.90
2023-03-04T22:35:53.574Z,99.90
2023-03-04T22:38:18.385Z,99.90
2023-03-04T22:40:42.829Z,99.90
2023-03-04T22:43:09.468Z,99.90
2023-03-04T22:45:33.991Z,99.90
2023-03-04T22:47:58.655Z,99.90
2023-03-04T22:50:23.718Z,99.90
2023-03-04T22:52:48.870Z,99.90
2023-03-04T22:55:14.450Z,99.90
2023-03-04T22:57:38.893Z,99.90
2023-03-04T23:00:07.784Z,99.90
2023-03-04T23:02:32.210Z,99.90
2023-03-04T23:04:56.678Z,99.90
2023-03-04T23:07:22.082Z,99.90
2023-03-04T23:09:46.601Z,99.90
2023-03-04T23:12:11.373Z,99.90
2023-03-04T23:14:35.862Z,99.90
2023-03-04T23:17:01.952Z,99.90
2023-03-04T23:19:28.907Z,99.90
2023-03-04T23:21:53.474Z,99.90
2023-03-04T23:24:19.646Z,99.90
2023-03-04T23:26:45.371Z,99.90
2023-03-04T23:29:12.607Z,99.90
2023-03-04T23:31:37.507Z,99.90
2023-03-04T23:34:05.034Z,99.90
2023-03-04T23:36:33.051Z,99.90
2023-03-04T23:38:57.588Z,99.90
2023-03-04T23:41:24.269Z,99.90
2023-03-04T23:43:51.339Z,99.90
2023-03-04T23:46:16.221Z,99.90
2023-03-04T23:48:46.316Z,99.90
2023-03-04T23:51:12.445Z,99.90
2023-03-04T23:53:39.100Z,99.90
2023-03-04T23:56:03.572Z,99.90
2023-03-04T23:58:28.298Z,99.90
